Time;durP1;ratioP1;P1;durP2;ratioP2;P2;SDS_P1;SDS_P2;PMS_P1;PMS_P2;Temp;Humidity;BMP_temperature;BMP_pressure;BME280_temperature;BME280_humidity;BME280_pressure;Samples;Min_cycle;Max_cycle;Signal;HPM_P1;HPM_P2
2023/03/22 00:00:18;;;;;;;;;;;;;;;11.33;68.65;100377.27;108178;1254;72171;-70
2023/03/22 00:02:46;;;;;;;39.60;32.00;;;;;;;11.33;68.42;100377.27;108134;1254;73930;-70
2023/03/22 00:05:13;;;;;;;38.70;31.90;;;;;;;11.31;68.23;100374.27;108142;1254;61185;-69
2023/03/22 00:07:59;;;;;;;38.10;31.90;;;;;;;11.29;68.08;100376.83;108204;1254;62951;-71
2023/03/22 00:10:29;;;;;;;41.10;32.60;;;;;;;11.28;68.00;100376.93;108119;1254;74161;-70
2023/03/22 00:12:56;;;;;;;40.30;32.40;;;;;;;11.25;68.02;100378.27;108163;1254;71963;-70
2023/03/22 00:15:25;;;;;;;37.90;31.80;;;;;;;11.22;67.98;100380.88;108134;1254;72056;-70
2023/03/22 00:17:52;;;;;;;39.60;32.00;;;;;;;11.19;67.87;100377.46;108158;1259;60419;-69
2023/03/22 00:20:22;;;;;;;40.90;33.00;;;;;;;11.16;67.89;100380.71;108124;1254;61725;-70
2023/03/22 00:22:50;;;;;;;38.20;32.50;;;;;;;11.14;67.83;100376.75;108142;1254;74736;-70
2023/03/22 00:25:19;;;;;;;38.90;31.90;;;;;;;11.11;67.85;100379.31;108143;1254;72268;-70
2023/03/22 00:27:48;;;;;;;39.30;32.50;;;;;;;11.09;67.92;100382.98;108120;1254;72366;-70
2023/03/22 00:30:15;;;;;;;36.70;30.90;;;;;;;11.06;67.96;100379.04;108162;1254;62587;-69
2023/03/22 00:32:43;;;;;;;38.50;30.60;;;;;;;11.02;67.91;100377.91;108130;1254;61159;-70
2023/03/22 00:35:10;;;;;;;41.00;32.00;;;;;;;11.00;67.99;100373.04;108088;1257;73414;-69
2023/03/22 00:37:38;;;;;;;41.60;32.30;;;;;;;10.98;68.02;100371.59;108146;1254;71664;-70
2023/03/22 00:40:10;;;;;;;41.80;33.40;;;;;;;10.92;67.90;100377.73;108128;1258;72109;-70
2023/03/22 00:42:38;;;;;;;45.20;36.10;;;;;;;10.89;67.89;100377.39;108145;1254;63151;-70
2023/03/22 00:45:07;;;;;;;46.10;33.80;;;;;;;10.88;68.05;100375.99;108142;1254;60974;-70
2023/03/22 00:47:34;;;;;;;41.90;33.70;;;;;;;10.85;68.03;100378.39;108127;1254;72721;-70
2023/03/22 00:50:06;;;;;;;47.40;36.50;;;;;;;10.84;68.03;100377.16;108141;1254;74039;-70
2023/03/22 00:52:33;;;;;;;45.20;36.30;;;;;;;10.84;68.10;100375.30;108143;1254;73535;-70
2023/03/22 00:55:00;;;;;;;46.90;37.10;;;;;;;10.83;68.14;100377.33;108097;1257;61942;-70
2023/03/22 00:57:29;;;;;;;43.60;35.40;;;;;;;10.83;68.12;100377.42;108130;1259;60350;-70
2023/03/22 00:59:57;;;;;;;44.20;35.30;;;;;;;10.83;68.23;100375.89;108190;1254;75046;-70
2023/03/22 01:02:28;;;;;;;43.70;35.00;;;;;;;10.82;68.33;100374.64;108087;1254;72922;-69
2023/03/22 01:04:56;;;;;;;42.00;33.60;;;;;;;10.82;68.34;100375.39;108132;1254;72866;-70
2023/03/22 01:07:23;;;;;;;42.10;33.00;;;;;;;10.82;68.50;100374.70;108053;1254;61383;-70
2023/03/22 01:09:51;;;;;;;42.90;34.30;;;;;;;10.80;68.52;100375.88;108154;1253;61346;-69
2023/03/22 01:12:18;;;;;;;42.20;34.00;;;;;;;10.80;68.52;100377.42;108122;1254;72938;-70
2023/03/22 01:14:45;;;;;;;42.30;34.40;;;;;;;10.82;68.56;100376.84;108137;1254;74009;-69
2023/03/22 01:17:15;;;;;;;42.00;32.80;;;;;;;10.81;68.56;100377.48;108023;1254;73513;-69
2023/03/22 01:19:50;;;;;;;41.10;33.30;;;;;;;10.79;68.48;100373.63;108105;1254;62113;-69
2023/03/22 01:22:23;;;;;;;41.70;32.30;;;;;;;10.76;68.49;100378.52;108176;1254;59769;-69
2023/03/22 01:24:54;;;;;;;43.90;35.20;;;;;;;10.65;68.62;100380.73;108089;1254;74741;-69
2023/03/22 01:27:38;;;;;;;42.20;33.50;;;;;;;10.52;68.80;100381.00;108110;1254;74047;-71
2023/03/22 01:30:15;;;;;;;43.50;34.90;;;;;;;10.36;69.12;100383.44;108143;1254;74542;-70
2023/03/22 01:32:44;;;;;;;47.60;35.90;;;;;;;10.25;69.47;100379.84;108106;1254;62100;-70
2023/03/22 01:35:11;;;;;;;43.20;33.50;;;;;;;10.20;69.67;100381.98;108129;1254;61179;-70
2023/03/22 01:37:40;;;;;;;42.30;33.70;;;;;;;10.19;69.97;100386.24;108156;1254;73261;-71
2023/03/22 01:40:15;;;;;;;35.70;29.70;;;;;;;10.19;70.25;100392.12;108133;1258;71745;-70
2023/03/22 01:43:25;;;;;;;37.30;29.80;;;;;;;10.15;70.42;100394.77;107973;1256;72600;-70
2023/03/22 01:45:55;;;;;;;34.40;28.30;;;;;;;10.07;70.43;100395.73;108047;1254;62405;-70
2023/03/22 01:48:27;;;;;;;35.30;28.10;;;;;;;9.98;70.57;100403.30;108118;1254;61011;-70
2023/03/22 01:51:09;;;;;;;36.20;28.70;;;;;;;9.88;70.81;100405.05;108033;1254;74661;-70
2023/03/22 01:53:53;;;;;;;35.90;29.10;;;;;;;9.77;71.18;100404.38;108161;1254;72472;-69
2023/03/22 01:56:23;;;;;;;36.10;30.20;;;;;;;9.72;71.43;100406.04;108119;1254;73578;-70
2023/03/22 01:58:50;;;;;;;35.20;27.90;;;;;;;9.68;71.62;100405.69;108078;1254;61093;-70
2023/03/22 02:01:19;;;;;;;35.50;28.30;;;;;;;9.65;71.79;100404.70;108115;1254;60409;-71
2023/03/22 02:03:51;;;;;;;37.00;29.20;;;;;;;9.61;72.00;100404.25;107866;1258;72785;-70
2023/03/22 02:06:18;;;;;;;37.60;29.90;;;;;;;9.58;72.26;100406.84;108004;1256;72581;-71
2023/03/22 02:08:46;;;;;;;38.80;30.80;;;;;;;9.58;72.37;100414.20;108115;1257;71604;-71
2023/03/22 02:11:26;;;;;;;36.50;28.70;;;;;;;9.61;72.62;100414.06;107892;1257;62650;-70
2023/03/22 02:14:18;;;;;;;39.20;30.90;;;;;;;9.63;72.59;100412.54;108145;1256;60807;-70
2023/03/22 02:17:26;;;;;;;40.60;30.70;;;;;;;9.64;72.51;100413.39;108113;1256;74279;-70
2023/03/22 02:20:23;;;;;;;43.30;30.90;;;;;;;9.67;72.62;100416.63;108150;1254;71773;-70
2023/03/22 02:23:15;;;;;;;40.20;31.10;;;;;;;9.72;72.72;100422.33;108118;1254;72915;-71
2023/03/22 02:26:06;;;;;;;36.40;29.60;;;;;;;9.77;72.71;100422.41;108129;1254;62343;-68
2023/03/22 02:28:57;;;;;;;39.00;30.30;;;;;;;9.80;72.75;100421.04;108105;1254;61331;-69
2023/03/22 02:31:46;;;;;;;37.60;29.60;;;;;;;9.80;72.79;100426.16;108067;1254;72438;-70
2023/03/22 02:34:27;;;;;;;41.20;30.90;;;;;;;9.79;72.80;100425.89;108094;1254;71132;-69
2023/03/22 02:37:10;;;;;;;39.10;31.20;;;;;;;9.79;72.88;100426.32;108139;1258;72688;-70
2023/03/22 02:39:55;;;;;;;;;;;;;;;9.81;72.92;100430.02;108185;1254;62387;-70
2023/03/22 02:42:44;;;;;;;39.80;31.00;;;;;;;9.83;72.96;100427.99;108117;1254;60364;-70
2023/03/22 02:45:19;;;;;;;35.00;27.90;;;;;;;9.85;72.99;100431.02;107950;1254;74533;-70
2023/03/22 02:48:17;;;;;;;38.90;30.40;;;;;;;9.85;72.80;100429.98;108091;1254;72287;-70
2023/03/22 02:51:07;;;;;;;34.90;27.70;;;;;;;9.84;72.89;100430.90;108120;1254;73502;-70
2023/03/22 02:53:39;;;;;;;37.00;29.80;;;;;;;9.85;72.86;100430.90;108079;1254;63220;-70
2023/03/22 02:56:18;;;;;;;35.30;28.70;;;;;;;9.85;72.84;100432.99;108153;1254;60514;-71
2023/03/22 02:58:47;;;;;;;36.00;28.90;;;;;;;9.89;72.83;100433.27;108085;1254;73360;-71
2023/03/22 03:01:26;;;;;;;36.30;28.40;;;;;;;9.93;72.85;100436.30;104156;1254;5288816;-69
2023/03/22 03:03:56;;;;;;;36.10;28.40;;;;;;;9.98;72.80;100440.13;108121;1254;62892;-70
2023/03/22 03:06:27;;;;;;;33.70;27.20;;;;;;;10.03;72.66;100441.07;108129;1254;61044;-70
2023/03/22 03:08:56;;;;;;;33.30;27.20;;;;;;;10.06;72.70;100441.98;108080;1254;74296;-71
2023/03/22 03:11:27;;;;;;;33.20;26.20;;;;;;;10.08;72.56;100447.89;108186;1254;73003;-70
2023/03/22 03:13:55;;;;;;;30.60;24.60;;;;;;;10.11;72.38;100449.45;108154;1254;73597;-70
2023/03/22 03:16:26;;;;;;;31.30;24.50;;;;;;;10.12;72.24;100454.63;108136;1256;62283;-70
2023/03/22 03:19:09;;;;;;;29.50;23.40;;;;;;;10.13;72.14;100453.62;107979;1256;61223;-71
2023/03/22 03:21:46;;;;;;;27.50;22.30;;;;;;;10.13;72.06;100457.47;107955;1254;74893;-69
2023/03/22 03:24:26;;;;;;;29.30;23.40;;;;;;;10.14;71.90;100462.28;108082;1254;73794;-70
2023/03/22 03:27:00;;;;;;;30.20;22.80;;;;;;;10.15;71.82;100462.89;107890;1254;73895;-71
2023/03/22 03:30:01;;;;;;;26.60;22.50;;;;;;;10.15;71.63;100467.05;108153;1255;63099;-69
2023/03/22 03:32:34;;;;;;;27.90;22.90;;;;;;;10.15;71.53;100471.32;108127;1256;60473;-70
2023/03/22 03:35:21;;;;;;;28.00;21.30;;;;;;;10.12;71.39;100467.82;108000;1256;74337;-70
2023/03/22 03:37:52;;;;;;;27.10;21.60;;;;;;;10.10;71.41;100468.45;108143;1255;73645;-71
2023/03/22 03:40:32;;;;;;;26.20;21.70;;;;;;;10.12;71.29;100470.76;108121;1254;70818;-69
2023/03/22 03:43:02;;;;;;;26.60;20.30;;;;;;;10.14;71.21;100474.14;108143;1256;62947;-68
2023/03/22 03:45:30;;;;;;;26.30;21.00;;;;;;;10.14;71.22;100476.44;108130;1255;61480;-69
2023/03/22 03:48:02;;;;;;;26.30;20.10;;;;;;;10.15;71.11;100476.12;108156;1254;75076;-69
2023/03/22 03:50:29;;;;;;;27.10;21.40;;;;;;;10.15;71.03;100473.02;108121;1254;72901;-69
2023/03/22 03:52:56;;;;;;;24.30;20.00;;;;;;;10.16;71.04;100472.27;108154;1254;70819;-69
2023/03/22 03:55:23;;;;;;;26.20;21.40;;;;;;;10.16;71.01;100469.82;108127;1256;62245;-69
2023/03/22 03:57:51;;;;;;;25.00;21.30;;;;;;;10.15;70.93;100473.81;108111;1254;61264;-71
2023/03/22 04:00:18;;;;;;;25.00;20.50;;;;;;;10.11;70.83;100472.03;108123;1254;75559;-69
2023/03/22 04:03:04;;;;;;;26.40;20.80;;;;;;;10.08;70.75;100474.84;108171;1254;73480;-70
2023/03/22 04:05:54;;;;;;;28.00;21.80;;;;;;;10.04;70.60;100471.92;108125;1257;71685;-70
2023/03/22 04:08:22;;;;;;;26.80;22.10;;;;;;;9.97;70.50;100472.35;108139;1254;62778;-71
2023/03/22 04:10:50;;;;;;;26.40;22.50;;;;;;;9.92;70.53;100476.16;108129;1254;61468;-70
2023/03/22 04:13:24;;;;;;;27.30;22.40;;;;;;;9.90;70.63;100481.84;107953;1254;73920;-69
2023/03/22 04:15:53;;;;;;;28.70;22.20;;;;;;;9.86;70.50;100480.63;108122;1254;73633;-70
2023/03/22 04:18:28;;;;;;;27.70;22.80;;;;;;;9.80;70.62;100481.97;108129;1254;73935;-69
2023/03/22 04:20:56;;;;;;;33.10;25.20;;;;;;;9.70;70.70;100488.28;108127;1254;62714;-70
2023/03/22 04:23:24;;;;;;;31.30;26.20;;;;;;;9.59;70.98;100492.70;108101;1254;61558;-70
2023/03/22 04:25:58;;;;;;;30.10;25.60;;;;;;;9.52;71.26;100495.52;108135;1256;75018;-70
2023/03/22 04:28:33;;;;;;;29.70;23.60;;;;;;;9.46;71.48;100495.24;108108;1254;74051;-70
2023/03/22 04:31:07;;;;;;;31.90;24.20;;;;;;;9.45;71.68;100497.25;108115;1254;73647;-70
2023/03/22 04:34:04;;;;;;;28.80;23.50;;;;;;;9.40;71.85;100491.51;108135;1254;61061;-70
2023/03/22 04:36:48;;;;;;;30.00;23.60;;;;;;;9.44;72.12;100496.23;108126;1258;60521;-70
2023/03/22 04:39:26;;;;;;;29.50;23.70;;;;;;;9.50;72.25;100495.39;108191;1254;73047;-70
2023/03/22 04:42:13;;;;;;;32.40;23.70;;;;;;;9.57;72.24;100494.13;108129;1254;72742;-71
2023/03/22 04:44:42;;;;;;;30.30;22.90;;;;;;;9.64;72.17;100492.38;108112;1254;73335;-71
2023/03/22 04:47:09;;;;;;;30.50;24.60;;;;;;;9.70;72.32;100493.35;108075;1254;60666;-70
2023/03/22 04:49:41;;;;;;;29.10;24.20;;;;;;;9.73;72.24;100494.96;108109;1254;61448;-70
2023/03/22 04:52:10;;;;;;;28.60;23.10;;;;;;;9.72;72.27;100496.79;108159;1254;73982;-70
2023/03/22 04:54:39;;;;;;;28.90;23.80;;;;;;;9.75;72.38;100502.93;108182;1254;72774;-70
2023/03/22 04:57:06;;;;;;;33.60;26.20;;;;;;;9.80;72.32;100505.28;108199;1253;73464;-70
2023/03/22 04:59:40;;;;;;;34.00;26.00;;;;;;;9.81;72.29;100511.39;108233;1253;61135;-69
2023/03/22 05:02:07;;;;;;;28.70;23.30;;;;;;;9.84;72.27;100519.25;108202;1255;61758;-70
2023/03/22 05:04:42;;;;;;;25.70;22.10;;;;;;;9.83;72.20;100516.40;108221;1253;73845;-70
2023/03/22 05:07:32;;;;;;;26.80;20.80;;;;;;;9.81;72.18;100519.22;108209;1253;71948;-70
2023/03/22 05:10:01;;;;;;;28.00;22.10;;;;;;;9.78;72.13;100525.64;108241;1257;71729;-70
2023/03/22 05:12:30;;;;;;;27.30;21.00;;;;;;;9.76;72.26;100530.26;108170;1253;62042;-72
2023/03/22 05:15:20;;;;;;;28.70;21.40;;;;;;;9.76;72.38;100530.11;108226;1253;60387;-72
2023/03/22 05:17:47;;;;;;;26.90;22.20;;;;;;;9.81;72.51;100531.11;108201;1253;75054;-70
2023/03/22 05:20:14;;;;;;;27.90;23.00;;;;;;;9.89;72.64;100532.58;108202;1253;73147;-70
2023/03/22 05:22:49;;;;;;;28.20;22.80;;;;;;;10.00;72.68;100531.66;108206;1253;73448;-70
2023/03/22 05:25:43;;;;;;;28.10;21.90;;;;;;;10.12;72.62;100532.30;108198;1253;61963;-71
2023/03/22 05:28:18;;;;;;;26.70;21.90;;;;;;;10.22;72.37;100529.13;108090;1254;61149;-70
2023/03/22 05:30:56;;;;;;;27.70;21.30;;;;;;;10.26;72.19;100528.60;108202;1253;74075;-70
2023/03/22 05:33:33;;;;;;;28.10;21.50;;;;;;;10.30;72.08;100531.46;108185;1254;71777;-70
2023/03/22 05:36:01;;;;;;;24.00;20.10;;;;;;;10.37;71.95;100533.18;108184;1253;73524;-70
2023/03/22 05:38:30;;;;;;;26.60;21.80;;;;;;;10.47;71.90;100533.52;108183;1253;62159;-70
2023/03/22 05:40:59;;;;;;;27.40;22.70;;;;;;;10.59;71.76;100535.34;108231;1253;60274;-70
2023/03/22 05:43:26;;;;;;;27.00;22.60;;;;;;;10.69;71.61;100532.47;108143;1255;74639;-70
2023/03/22 05:45:54;;;;;;;26.50;21.40;;;;;;;10.77;71.19;100530.86;108131;1253;72916;-70
2023/03/22 05:48:32;;;;;;;24.90;20.80;;;;;;;10.81;70.85;100533.19;108194;1253;73766;-70
2023/03/22 05:50:59;;;;;;;22.40;18.50;;;;;;;10.84;70.71;100529.63;108046;1253;62131;-70
2023/03/22 05:53:30;;;;;;;25.60;20.50;;;;;;;10.86;70.47;100533.58;108175;1253;60652;-70
2023/03/22 05:56:24;;;;;;;25.30;21.20;;;;;;;10.86;70.15;100535.40;108218;1253;73491;-70
2023/03/22 05:59:01;;;;;;;22.10;18.10;;;;;;;10.87;70.20;100537.98;108130;1253;74041;-70
2023/03/22 06:01:30;;;;;;;24.90;19.20;;;;;;;10.92;70.27;100538.11;108139;1253;73579;-70
2023/03/22 06:04:15;;;;;;;20.80;17.40;;;;;;;10.98;69.97;100541.19;108162;1254;60947;-70
2023/03/22 06:06:53;;;;;;;21.00;17.20;;;;;;;11.04;69.87;100545.12;108220;1253;60467;-69
2023/03/22 06:09:32;;;;;;;21.50;16.80;;;;;;;11.10;69.69;100550.48;108214;1253;74955;-69
2023/03/22 06:12:00;;;;;;;21.90;16.70;;;;;;;11.16;69.44;100557.84;108161;1253;73051;-70
2023/03/22 06:14:26;;;;;;;20.60;16.50;;;;;;;11.23;69.28;100561.83;108171;1253;73428;-70
2023/03/22 06:17:14;;;;;;;20.40;16.80;;;;;;;11.31;69.02;100569.13;108174;1253;62025;-69
2023/03/22 06:19:43;;;;;;;21.90;17.30;;;;;;;11.39;68.81;100572.80;108206;1253;60523;-69
2023/03/22 06:22:32;;;;;;;21.80;17.70;;;;;;;11.53;68.83;100568.04;108216;1253;73256;-71
2023/03/22 06:25:00;;;;;;;21.30;17.40;;;;;;;11.65;68.63;100569.73;108212;1253;72213;-69
2023/03/22 06:27:39;;;;;;;19.40;15.80;;;;;;;11.81;68.21;100572.13;108204;1256;71761;-70
2023/03/22 06:30:07;;;;;;;22.00;16.80;;;;;;;11.98;67.87;100575.58;108193;1253;62211;-70
2023/03/22 06:32:45;;;;;;;23.60;18.90;;;;;;;12.17;67.32;100583.88;108156;1253;60592;-70
2023/03/22 06:35:13;;;;;;;24.80;19.50;;;;;;;12.31;66.74;100585.65;108168;1253;75081;-70
2023/03/22 06:37:41;;;;;;;31.50;23.60;;;;;;;12.33;66.09;100583.08;108168;1253;72873;-70
2023/03/22 06:40:11;;;;;;;33.10;25.60;;;;;;;12.37;66.13;100589.36;108187;1257;71824;-70
2023/03/22 06:42:39;;;;;;;32.40;25.60;;;;;;;12.47;65.81;100589.52;108154;1257;63215;-70
2023/03/22 06:45:09;;;;;;;23.60;18.60;;;;;;;12.61;65.29;100590.79;108139;1253;60576;-70
2023/03/22 06:47:38;;;;;;;20.00;15.80;;;;;;;12.61;64.03;100588.06;108196;1253;74836;-71
2023/03/22 06:50:05;;;;;;;19.80;15.20;;;;;;;12.53;63.88;100586.36;108184;1253;72476;-69
2023/03/22 06:53:10;;;;;;;22.00;17.90;;;;;;;12.51;63.97;100586.67;108097;1257;73738;-70
2023/03/22 06:55:38;;;;;;;20.40;16.40;;;;;;;12.60;63.91;100584.69;108192;1253;60499;-70
2023/03/22 06:58:18;;;;;;;22.60;18.00;;;;;;;12.67;63.57;100583.13;108157;1253;60562;-70
2023/03/22 07:00:45;;;;;;;23.00;17.40;;;;;;;12.71;63.30;100586.83;108218;1253;74012;-70
2023/03/22 07:03:13;;;;;;;20.20;16.20;;;;;;;12.76;63.30;100583.01;108178;1253;73906;-70
2023/03/22 07:05:51;;;;;;;20.60;16.20;;;;;;;12.84;63.13;100585.35;108215;1253;73376;-70
2023/03/22 07:08:19;;;;;;;20.30;16.80;;;;;;;12.89;62.65;100584.85;108164;1253;62066;-71
2023/03/22 07:10:50;;;;;;;21.20;17.80;;;;;;;12.93;62.37;100585.98;108264;1253;59729;-71
2023/03/22 07:13:19;;;;;;;22.20;19.10;;;;;;;12.97;62.25;100584.41;108192;1253;74806;-71
2023/03/22 07:15:47;;;;;;;22.60;18.60;;;;;;;13.06;62.36;100585.63;108233;1253;72023;-71
2023/03/22 07:18:36;;;;;;;23.00;19.10;;;;;;;13.17;62.18;100586.71;108186;1253;73445;-71
2023/03/22 07:21:06;;;;;;;23.90;20.40;;;;;;;13.29;62.15;100588.57;108164;1253;62875;-71
2023/03/22 07:23:34;;;;;;;24.70;20.20;;;;;;;13.41;61.61;100587.57;108140;1253;60204;-71
2023/03/22 07:26:05;;;;;;;;;;;;;;;13.48;61.29;100592.27;108228;1253;72559;-70
2023/03/22 07:28:34;;;;;;;21.30;16.00;;;;;;;13.50;60.79;100589.09;108194;1253;72821;-72
2023/03/22 07:31:10;;;;;;;20.80;15.20;;;;;;;13.46;60.71;100594.20;108157;1253;72002;-70
2023/03/22 07:34:03;;;;;;;17.10;13.60;;;;;;;13.46;60.63;100595.44;108135;1253;61014;-71
2023/03/22 07:36:36;;;;;;;19.20;13.60;;;;;;;13.51;60.55;100598.10;108103;1253;60346;-71
2023/03/22 07:39:05;;;;;;;18.20;14.20;;;;;;;13.54;60.41;100603.13;108134;1253;74289;-71
2023/03/22 07:41:34;;;;;;;17.70;13.50;;;;;;;13.56;60.33;100597.98;108162;1253;72036;-71
2023/03/22 07:44:18;;;;;;;16.10;13.00;;;;;;;13.60;60.26;100601.97;108134;1254;73434;-70
2023/03/22 07:46:51;;;;;;;16.10;12.60;;;;;;;13.64;59.91;100603.99;108136;1253;61929;-70
2023/03/22 07:49:27;;;;;;;16.60;12.50;;;;;;;13.67;59.53;100604.00;108206;1253;60323;-70
2023/03/22 07:52:15;;;;;;;17.10;13.20;;;;;;;13.72;59.43;100604.77;108174;1253;73254;-70
2023/03/22 07:54:44;;;;;;;16.10;13.50;;;;;;;13.85;59.29;100603.98;108179;1253;73726;-70
2023/03/22 07:57:13;;;;;;;20.20;15.30;;;;;;;14.04;59.17;100604.63;108214;1253;74119;-71
2023/03/22 07:59:45;;;;;;;17.90;13.80;;;;;;;14.26;58.44;100605.27;108244;1253;60325;-70
2023/03/22 08:02:13;;;;;;;17.70;13.30;;;;;;;14.44;57.65;100601.42;108125;1254;60332;-70
2023/03/22 08:04:45;;;;;;;;;;;;;;;14.57;57.00;100602.81;108194;1254;72740;-71
2023/03/22 08:07:36;;;;;;;15.20;12.10;;;;;;;14.64;56.50;100605.13;108104;1254;72948;-69
2023/03/22 08:10:04;;;;;;;14.40;12.10;;;;;;;14.62;56.23;100607.17;108168;1254;72993;-71
2023/03/22 08:12:32;;;;;;;15.40;12.60;;;;;;;14.60;55.97;100607.77;108110;1254;61351;-71
2023/03/22 08:15:08;;;;;;;13.80;10.80;;;;;;;14.56;55.82;100602.98;108072;1254;61396;-70
2023/03/22 08:17:36;;;;;;;13.90;11.70;;;;;;;14.53;55.98;100603.64;108046;1254;75100;-71
2023/03/22 08:20:07;;;;;;;15.80;11.30;;;;;;;14.54;55.90;100605.64;108159;1253;73671;-71
2023/03/22 08:22:44;;;;;;;19.60;12.00;;;;;;;14.54;55.80;100604.12;108179;1253;73016;-71
2023/03/22 08:25:28;;;;;;;14.60;12.00;;;;;;;14.52;55.77;100606.61;108197;1253;61570;-70
2023/03/22 08:28:03;;;;;;;15.30;11.70;;;;;;;14.50;55.63;100604.84;108178;1253;61181;-70
2023/03/22 08:30:31;;;;;;;14.80;12.20;;;;;;;14.49;55.74;100603.39;108162;1253;74252;-70
2023/03/22 08:32:58;;;;;;;15.00;11.30;;;;;;;14.53;55.93;100600.52;108111;1253;71577;-71
2023/03/22 08:35:26;;;;;;;16.40;12.10;;;;;;;14.65;55.52;100604.45;108154;1253;72558;-70
2023/03/22 08:37:54;;;;;;;15.00;12.00;;;;;;;14.75;55.30;100605.80;108168;1253;61192;-70
2023/03/22 08:40:25;;;;;;;15.10;11.60;;;;;;;14.86;55.16;100604.64;108160;1253;61579;-71
2023/03/22 08:43:00;;;;;;;16.90;12.30;;;;;;;14.97;54.75;100604.09;108189;1253;75099;-73
2023/03/22 08:45:28;;;;;;;14.70;11.40;;;;;;;15.03;54.25;100610.27;108190;1253;73640;-71
2023/03/22 08:48:03;;;;;;;14.70;11.50;;;;;;;15.01;54.09;100608.84;108229;1254;74089;-73
2023/03/22 08:50:35;;;;;;;14.40;11.00;;;;;;;15.04;54.18;100608.54;108237;1253;60321;-71
2023/03/22 08:53:12;;;;;;;14.10;11.20;;;;;;;14.95;53.95;100608.42;108167;1253;60352;-72
2023/03/22 08:55:43;;;;;;;14.70;12.50;;;;;;;14.87;54.36;100611.45;108155;1253;72952;-70
2023/03/22 08:58:11;;;;;;;16.00;11.40;;;;;;;14.92;54.56;100608.77;108200;1253;71753;-70
2023/03/22 09:00:42;;;;;;;15.00;10.20;;;;;;;15.03;54.34;100606.93;108218;1253;72926;-70
2023/03/22 09:03:23;;;;;;;14.10;10.50;;;;;;;15.12;54.07;100606.57;108174;1254;61421;-71
2023/03/22 09:05:52;;;;;;;17.70;11.20;;;;;;;15.18;53.85;100603.54;108179;1254;61608;-70
2023/03/22 09:08:23;;;;;;;14.90;11.40;;;;;;;15.24;53.73;100605.36;108149;1258;73121;-72
2023/03/22 09:10:56;;;;;;;12.70;9.90;;;;;;;15.29;53.16;100602.45;108176;1253;73040;-70
2023/03/22 09:13:23;;;;;;;13.50;9.90;;;;;;;15.28;52.73;100605.75;108306;1253;72083;-71
2023/03/22 09:16:01;;;;;;;14.00;9.90;;;;;;;15.21;52.78;100607.59;108062;1253;60308;-71
2023/03/22 09:18:33;;;;;;;12.80;9.80;;;;;;;15.22;52.88;100608.88;108108;1253;60392;-71
2023/03/22 09:21:04;;;;;;;13.20;10.30;;;;;;;15.26;52.86;100611.00;108206;1253;73109;-72
2023/03/22 09:23:40;;;;;;;15.90;10.70;;;;;;;15.33;52.67;100613.08;108153;1253;73587;-71
2023/03/22 09:26:09;;;;;;;12.80;9.10;;;;;;;15.34;52.35;100612.30;108196;1253;72680;-72
2023/03/22 09:28:37;;;;;;;12.50;9.50;;;;;;;15.29;52.14;100609.29;108168;1253;61122;-70
2023/03/22 09:31:06;;;;;;;10.40;8.10;;;;;;;15.21;52.19;100612.08;108229;1253;61561;-71
2023/03/22 09:33:34;;;;;;;11.60;8.60;;;;;;;15.18;52.31;100606.08;108226;1256;74658;-71
2023/03/22 09:36:03;;;;;;;11.20;8.90;;;;;;;15.16;52.44;100609.81;108149;1253;73773;-71
2023/03/22 09:38:37;;;;;;;11.60;9.10;;;;;;;15.04;52.46;100612.63;108254;1257;72971;-70
2023/03/22 09:41:06;;;;;;;12.60;9.10;;;;;;;15.09;52.28;100618.44;108127;1253;60473;-73
2023/03/22 09:43:41;;;;;;;11.20;8.60;;;;;;;15.22;51.74;100615.02;108202;1253;61562;-72
2023/03/22 09:46:19;;;;;;;11.30;8.50;;;;;;;15.17;51.54;100614.22;108186;1256;74256;-71
2023/03/22 09:48:48;;;;;;;11.30;8.80;;;;;;;15.10;51.72;100610.95;108076;1254;72780;-71
2023/03/22 09:51:41;;;;;;;11.90;9.10;;;;;;;15.09;51.83;100612.78;108127;1258;72700;-71
2023/03/22 09:54:32;;;;;;;13.30;10.00;;;;;;;15.12;51.97;100607.38;108062;1254;60446;-71
2023/03/22 09:57:20;;;;;;;12.20;9.60;;;;;;;15.16;51.94;100609.39;108015;1254;60444;-71
2023/03/22 10:00:15;;;;;;;12.10;9.00;;;;;;;15.19;51.87;100606.38;108140;1254;74147;-70
2023/03/22 10:03:05;;;;;;;14.00;10.40;;;;;;;15.33;51.50;100609.13;108134;1254;73000;-71
2023/03/22 10:05:57;;;;;;;12.60;9.50;;;;;;;15.39;51.37;100609.66;108130;1254;72884;-72
2023/03/22 10:08:35;;;;;;;13.40;9.20;;;;;;;15.48;51.08;100604.64;108013;1256;61598;-72
2023/03/22 10:11:26;;;;;;;10.90;9.00;;;;;;;15.56;50.85;100603.36;108141;1254;60734;-70
2023/03/22 10:14:01;;;;;;;11.30;7.90;;;;;;;15.66;50.72;100601.58;108075;1254;74579;-71
2023/03/22 10:16:32;;;;;;;11.00;8.40;;;;;;;15.78;50.35;100598.41;108081;1254;71947;-71
2023/03/22 10:19:19;;;;;;;10.30;8.20;;;;;;;15.90;50.06;100597.17;108115;1253;73598;-70
2023/03/22 10:21:51;;;;;;;9.00;7.70;;;;;;;16.11;49.61;100595.18;108197;1253;61114;-70
2023/03/22 10:24:34;;;;;;;9.30;8.00;;;;;;;16.25;48.98;100592.23;108113;1253;60734;-71
2023/03/22 10:27:01;;;;;;;12.50;8.70;;;;;;;16.38;48.68;100591.27;108264;1257;73155;-71
2023/03/22 10:29:35;;;;;;;9.90;7.60;;;;;;;16.52;48.28;100587.70;108074;1253;71710;-72
2023/03/22 10:32:40;;;;;;;9.30;7.30;;;;;;;16.70;47.77;100590.18;108200;1253;73322;-71
2023/03/22 10:35:38;;;;;;;8.30;6.40;;;;;;;17.02;47.22;100585.59;108204;1253;60569;-70
2023/03/22 10:38:12;;;;;;;8.90;6.40;;;;;;;17.25;45.76;100584.75;108223;1253;60297;-70
2023/03/22 10:40:41;;;;;;;15.60;7.80;;;;;;;17.35;45.62;100584.98;108182;1253;72830;-72
2023/03/22 10:43:37;;;;;;;8.90;7.10;;;;;;;17.56;45.80;100586.59;108172;1253;75035;-71
2023/03/22 10:46:34;;;;;;;8.50;7.00;;;;;;;17.89;44.54;100580.86;108235;1253;72306;-71
2023/03/22 10:49:38;;;;;;;7.10;5.80;;;;;;;17.85;43.68;100585.29;108243;1253;60414;-71
2023/03/22 10:52:43;;;;;;;9.50;6.80;;;;;;;17.65;43.73;100580.79;108272;1253;60738;-70
2023/03/22 10:55:19;;;;;;;9.30;6.90;;;;;;;17.76;43.64;100583.00;108242;1253;72807;-71
2023/03/22 10:58:21;;;;;;;8.50;6.10;;;;;;;17.83;43.17;100581.88;108220;1253;72951;-71
2023/03/22 11:01:01;;;;;;;11.50;6.10;;;;;;;17.69;43.07;100583.55;108254;1253;73741;-71
2023/03/22 11:03:54;;;;;;;8.80;5.60;;;;;;;17.54;43.32;100581.89;108098;1254;61399;-70
2023/03/22 11:06:35;;;;;;;7.20;4.80;;;;;;;17.38;43.68;100579.95;108101;1256;61242;-71
2023/03/22 11:09:24;;;;;;;5.70;4.50;;;;;;;17.30;43.65;100579.09;108199;1253;73660;-70
2023/03/22 11:12:24;;;;;;;7.90;5.00;;;;;;;17.27;43.79;100576.68;108215;1253;72515;-70
2023/03/22 11:15:54;;;;;;;6.50;5.20;;;;;;;17.25;43.70;100573.20;108120;1253;71496;-70
2023/03/22 11:18:51;;;;;;;7.90;5.60;;;;;;;17.31;43.33;100572.85;108097;1253;61224;-70
2023/03/22 11:21:48;;;;;;;6.40;5.10;;;;;;;17.37;43.34;100569.48;107902;1253;60544;-70
2023/03/22 11:24:50;;;;;;;6.20;4.70;;;;;;;17.31;42.90;100565.66;107937;1253;72913;-70
2023/03/22 11:28:15;;;;;;;6.00;4.60;;;;;;;17.06;43.30;100563.64;107821;1253;72782;-71
2023/03/22 11:31:17;;;;;;;6.00;4.40;;;;;;;17.04;43.47;100562.61;108035;1253;73497;-70
2023/03/22 11:34:07;;;;;;;6.60;4.50;;;;;;;17.18;43.16;100559.47;108066;1256;60840;-69
2023/03/22 11:36:59;;;;;;;6.30;4.90;;;;;;;17.30;42.65;100554.42;107938;1256;61415;-71
2023/03/22 11:40:03;;;;;;;8.00;5.60;;;;;;;17.34;42.04;100555.09;107858;1254;74977;-71
2023/03/22 11:43:00;;;;;;;7.60;5.80;;;;;;;17.34;42.29;100554.20;107963;1253;72464;-69
2023/03/22 11:46:04;;;;;;;7.40;5.30;;;;;;;17.46;42.04;100555.11;108162;1253;74219;-71
2023/03/22 11:48:58;;;;;;;8.40;5.10;;;;;;;17.47;41.88;100552.88;108092;1259;61044;-71